createdAt,value
2024-05-09T00:00:35.503Z,12.61
2024-05-09T00:03:10.430Z,12.57
2024-05-09T00:05:38.595Z,12.49
2024-05-09T00:08:06.579Z,12.44
2024-05-09T00:10:37.219Z,12.29
2024-05-09T00:13:10.203Z,12.30
2024-05-09T00:15:37.399Z,12.26
2024-05-09T00:18:05.436Z,12.29
2024-05-09T00:20:38.021Z,12.28
2024-05-09T00:23:08.440Z,12.31
2024-05-09T00:25:35.625Z,12.27
2024-05-09T00:28:02.408Z,12.22
2024-05-09T00:30:34.299Z,12.26
2024-05-09T00:33:04.860Z,12.26
2024-05-09T00:35:32.286Z,12.24
2024-05-09T00:37:58.961Z,12.17
2024-05-09T00:40:35.349Z,12.14
2024-05-09T00:43:06.527Z,12.04
2024-05-09T00:45:34.724Z,11.94
2024-05-09T00:48:04.910Z,11.82
2024-05-09T00:50:38.154Z,11.82
2024-05-09T00:53:07.592Z,11.83
2024-05-09T00:55:35.403Z,11.83
2024-05-09T00:58:03.199Z,11.80
2024-05-09T01:00:37.823Z,11.78
2024-05-09T01:03:07.125Z,11.77
2024-05-09T01:05:34.689Z,11.70
2024-05-09T01:08:02.287Z,11.70
2024-05-09T01:10:34.316Z,11.71
2024-05-09T01:13:06.495Z,11.66
2024-05-09T01:15:34.412Z,11.56
2024-05-09T01:18:04.287Z,11.56
2024-05-09T01:20:40.019Z,11.54
2024-05-09T01:23:10.302Z,11.54
2024-05-09T01:25:37.159Z,11.49
2024-05-09T01:28:04.018Z,11.46
2024-05-09T01:30:34.486Z,11.47
2024-05-09T01:33:04.169Z,11.45
2024-05-09T01:35:31.187Z,11.30
2024-05-09T01:37:57.847Z,11.25
2024-05-09T01:40:33.543Z,11.31
2024-05-09T01:43:04.617Z,11.28
2024-05-09T01:45:31.380Z,11.29
2024-05-09T01:47:58.238Z,11.23
2024-05-09T01:50:36.248Z,11.20
2024-05-09T01:53:06.817Z,11.23
2024-05-09T01:55:33.417Z,11.20
2024-05-09T01:57:59.959Z,11.07
2024-05-09T02:00:36.301Z,11.01
2024-05-09T02:03:08.988Z,11.03
2024-05-09T02:05:36.023Z,11.01
2024-05-09T02:08:02.618Z,11.03
2024-05-09T02:10:32.655Z,11.00
2024-05-09T02:13:00.053Z,10.93
2024-05-09T02:15:26.555Z,10.89
2024-05-09T02:17:53.320Z,10.89
2024-05-09T02:20:30.035Z,10.91
2024-05-09T02:23:04.125Z,10.91
2024-05-09T02:25:31.410Z,10.92
2024-05-09T02:27:58.093Z,10.90
2024-05-09T02:30:31.168Z,10.87
2024-05-09T02:33:05.944Z,10.80
2024-05-09T02:35:32.707Z,10.76
2024-05-09T02:37:59.357Z,10.76
2024-05-09T02:40:35.041Z,10.74
2024-05-09T02:43:04.211Z,10.70
2024-05-09T02:45:31.697Z,10.69
2024-05-09T02:47:58.747Z,10.69
2024-05-09T02:50:33.698Z,10.61
2024-05-09T02:53:05.106Z,10.58
2024-05-09T02:55:31.778Z,10.49
2024-05-09T02:57:58.343Z,10.50
2024-05-09T03:00:34.215Z,10.51
2024-05-09T03:03:06.746Z,10.48
2024-05-09T03:05:33.711Z,10.55
2024-05-09T03:08:00.304Z,10.46
2024-05-09T03:10:29.118Z,10.44
2024-05-09T03:13:05.818Z,10.48
2024-05-09T03:15:32.948Z,10.47
2024-05-09T03:18:00.194Z,10.51
2024-05-09T03:20:33.009Z,10.48
2024-05-09T03:23:01.937Z,10.40
2024-05-09T03:25:28.447Z,10.36
2024-05-09T03:27:55.005Z,10.26
2024-05-09T03:30:30.998Z,10.26
2024-05-09T03:33:10.419Z,10.20
2024-05-09T03:35:37.160Z,10.20
2024-05-09T03:38:03.958Z,10.18
2024-05-09T03:40:31.257Z,10.12
2024-05-09T03:42:58.857Z,10.08
2024-05-09T03:45:25.481Z,10.08
2024-05-09T03:47:52.667Z,10.07
2024-05-09T03:50:29.520Z,9.97
2024-05-09T03:53:00.354Z,9.95
2024-05-09T03:55:27.009Z,10.02
2024-05-09T03:57:53.695Z,10.05
2024-05-09T04:00:30.402Z,9.94
2024-05-09T04:03:02.455Z,9.97
2024-05-09T04:05:30.925Z,9.94
2024-05-09T04:07:57.729Z,9.91
2024-05-09T04:10:31.175Z,9.87
2024-05-09T04:13:00.356Z,9.88
2024-05-09T04:15:26.895Z,9.85
2024-05-09T04:17:53.785Z,9.90
2024-05-09T04:20:29.388Z,9.81
2024-05-09T04:23:04.260Z,9.76
2024-05-09T04:25:31.863Z,9.75
2024-05-09T04:27:58.347Z,9.75
2024-05-09T04:30:34.434Z,9.74
2024-05-09T04:33:05.696Z,9.72
2024-05-09T04:35:32.589Z,9.68
2024-05-09T04:37:59.274Z,9.59
2024-05-09T04:40:33.006Z,9.56
2024-05-09T04:43:02.481Z,9.61
2024-05-09T04:45:29.036Z,9.69
2024-05-09T04:47:55.887Z,9.79
2024-05-09T04:50:30.192Z,9.88
2024-05-09T04:53:03.064Z,9.97
2024-05-09T04:55:29.671Z,9.97
2024-05-09T04:57:56.286Z,10.02
2024-05-09T05:00:32.252Z,9.99
2024-05-09T05:03:07.027Z,10.07
2024-05-09T05:05:37.331Z,10.17
2024-05-09T05:08:04.186Z,10.20
2024-05-09T05:10:35.854Z,10.30
2024-05-09T05:13:18.126Z,10.35
2024-05-09T05:15:46.590Z,10.41
2024-05-09T05:18:14.935Z,10.42
2024-05-09T05:20:42.443Z,10.46
2024-05-09T05:23:12.311Z,10.54
2024-05-09T05:25:39.654Z,10.63
2024-05-09T05:28:06.672Z,10.62
2024-05-09T05:30:40.133Z,10.76
2024-05-09T05:33:09.927Z,10.88
2024-05-09T05:35:37.063Z,10.97
2024-05-09T05:38:04.086Z,11.05
2024-05-09T05:40:36.438Z,11.17
2024-05-09T05:43:08.986Z,11.18
2024-05-09T05:45:35.987Z,11.10
2024-05-09T05:48:06.784Z,11.07
2024-05-09T05:50:36.834Z,11.09
2024-05-09T05:53:06.472Z,10.96
2024-05-09T05:55:33.354Z,10.89
2024-05-09T05:58:01.489Z,10.97
2024-05-09T06:00:34.865Z,11.07
2024-05-09T06:03:05.413Z,11.11
2024-05-09T06:05:32.746Z,11.01
2024-05-09T06:07:59.485Z,11.13
2024-05-09T06:10:30.589Z,11.26
2024-05-09T06:13:04.517Z,11.37
2024-05-09T06:15:31.042Z,11.44
2024-05-09T06:17:57.694Z,11.46
2024-05-09T06:20:33.927Z,11.49
2024-05-09T06:23:03.460Z,11.54
2024-05-09T06:25:30.184Z,11.53
2024-05-09T06:27:56.754Z,11.60
2024-05-09T06:30:30.355Z,11.66
2024-05-09T06:33:05.954Z,11.64
2024-05-09T06:35:33.710Z,11.75
2024-05-09T06:38:01.235Z,11.82
2024-05-09T06:40:35.796Z,11.93
2024-05-09T06:43:05.047Z,11.93
2024-05-09T06:45:31.855Z,11.95
2024-05-09T06:47:58.552Z,11.95
2024-05-09T06:50:28.357Z,12.03
2024-05-09T06:52:58.829Z,11.99
2024-05-09T06:55:25.347Z,11.96
2024-05-09T06:57:52.314Z,11.96
2024-05-09T07:00:27.234Z,11.93
2024-05-09T07:03:05.476Z,11.91
2024-05-09T07:05:33.244Z,11.95
2024-05-09T07:08:00.897Z,11.94
2024-05-09T07:10:33.096Z,12.04
2024-05-09T07:13:01.952Z,12.15
2024-05-09T07:15:28.481Z,12.19
2024-05-09T07:17:55.299Z,12.19
2024-05-09T07:20:31.704Z,12.26
2024-05-09T07:23:02.831Z,12.23
2024-05-09T07:25:29.685Z,12.24
2024-05-09T07:27:56.607Z,12.27
2024-05-09T07:30:27.914Z,12.31
2024-05-09T07:33:00.515Z,12.31
2024-05-09T07:35:27.625Z,12.40
2024-05-09T07:37:54.623Z,12.47
2024-05-09T07:40:31.705Z,12.64
2024-05-09T07:43:11.674Z,12.88
2024-05-09T07:45:48.534Z,13.05
2024-05-09T07:53:38.600Z,13.64
2024-05-09T07:56:07.520Z,13.85
2024-05-09T07:58:34.454Z,14.11
2024-05-09T08:01:02.594Z,13.92
2024-05-09T08:03:29.493Z,13.91
2024-05-09T08:05:56.114Z,13.93
2024-05-09T08:08:22.898Z,14.00
2024-05-09T08:10:50.483Z,14.13
2024-05-09T08:13:17.123Z,14.19
2024-05-09T08:15:43.660Z,14.26
2024-05-09T08:18:10.497Z,14.31
2024-05-09T08:20:38.730Z,14.58
2024-05-09T08:23:05.674Z,14.84
2024-05-09T08:25:32.264Z,15.22
2024-05-09T08:27:58.834Z,15.45
2024-05-09T08:30:32.652Z,15.51
2024-05-09T08:33:04.171Z,15.62
2024-05-09T08:35:31.875Z,15.85
2024-05-09T08:37:58.635Z,15.94
2024-05-09T08:40:32.922Z,16.17
2024-05-09T08:43:02.645Z,16.16
2024-05-09T08:45:30.163Z,16.19
2024-05-09T08:48:00.321Z,16.40
2024-05-09T08:50:35.477Z,16.62
2024-05-09T08:53:05.446Z,16.82
2024-05-09T08:55:32.324Z,17.04
2024-05-09T08:58:00.774Z,17.28
2024-05-09T09:00:35.880Z,17.36
2024-05-09T09:03:06.740Z,17.47
2024-05-09T09:05:37.947Z,17.67
2024-05-09T09:08:07.521Z,17.80
2024-05-09T09:10:34.206Z,18.06
2024-05-09T09:13:05.255Z,18.20
2024-05-09T09:15:32.647Z,18.29
2024-05-09T09:18:01.098Z,18.38
2024-05-09T09:20:35.807Z,18.57
2024-05-09T09:23:04.499Z,18.78
2024-05-09T09:25:31.650Z,18.87
2024-05-09T09:27:58.742Z,18.88
2024-05-09T09:30:35.126Z,18.60
2024-05-09T09:33:05.223Z,18.75
2024-05-09T09:35:32.675Z,18.81
2024-05-09T09:38:03.221Z,18.66
2024-05-09T09:40:37.211Z,19.04
2024-05-09T09:43:14.005Z,19.17
2024-05-09T09:45:43.613Z,19.24
2024-05-09T09:48:10.828Z,19.32
2024-05-09T09:50:37.842Z,19.37
2024-05-09T09:53:07.008Z,19.46
2024-05-09T09:55:34.703Z,19.60
2024-05-09T09:58:01.412Z,19.64
2024-05-09T10:00:32.973Z,19.77
2024-05-09T10:03:01.449Z,19.92
2024-05-09T10:05:29.209Z,20.06
2024-05-09T10:07:57.349Z,20.10
2024-05-09T10:10:31.719Z,20.06
2024-05-09T10:13:08.896Z,20.26
2024-05-09T10:15:53.995Z,20.52
2024-05-09T10:18:30.200Z,20.45
2024-05-09T10:20:59.421Z,20.38
2024-05-09T10:23:26.573Z,20.18
2024-05-09T10:26:05.316Z,20.30
2024-05-09T10:28:36.985Z,20.63
2024-05-09T10:31:08.689Z,20.66
2024-05-09T10:33:40.059Z,20.76
2024-05-09T10:36:14.161Z,20.94
2024-05-09T10:38:43.797Z,20.79
2024-05-09T10:41:11.610Z,20.66
2024-05-09T10:43:40.099Z,20.61
2024-05-09T10:46:07.737Z,20.70
2024-05-09T10:48:35.741Z,20.76
2024-05-09T10:51:02.538Z,20.72
2024-05-09T10:53:29.138Z,20.72
2024-05-09T10:55:59.993Z,20.70
2024-05-09T10:58:27.664Z,20.86
2024-05-09T11:00:57.790Z,20.72
2024-05-09T11:03:25.441Z,20.68
2024-05-09T11:05:53.255Z,20.68
2024-05-09T11:08:23.290Z,20.60
2024-05-09T11:10:54.183Z,20.50
2024-05-09T11:13:31.966Z,20.53
2024-05-09T11:15:59.973Z,20.64
2024-05-09T11:18:30.396Z,20.63
2024-05-09T11:20:59.845Z,20.64
2024-05-09T11:23:27.900Z,20.73
2024-05-09T11:25:55.636Z,20.73
2024-05-09T11:28:23.125Z,20.78
2024-05-09T11:30:50.700Z,20.56
2024-05-09T11:33:18.856Z,20.43
2024-05-09T11:35:46.564Z,20.52
2024-05-09T11:38:13.568Z,20.65
2024-05-09T11:40:40.638Z,20.67
2024-05-09T11:43:07.352Z,20.70
2024-05-09T11:45:33.954Z,20.79
2024-05-09T11:48:00.762Z,21.05
2024-05-09T11:50:32.994Z,21.29
2024-05-09T11:53:02.288Z,21.39
2024-05-09T11:55:29.210Z,21.40
2024-05-09T11:57:56.101Z,21.46
2024-05-09T12:00:29.739Z,21.36
2024-05-09T12:03:05.169Z,21.34
2024-05-09T12:05:33.152Z,21.38
2024-05-09T12:08:00.750Z,21.41
2024-05-09T12:10:33.137Z,21.43
2024-05-09T12:13:02.646Z,21.40
2024-05-09T12:15:29.777Z,21.29
2024-05-09T12:17:58.929Z,21.13
2024-05-09T12:20:35.310Z,20.98
2024-05-09T12:23:05.481Z,20.99
2024-05-09T12:25:32.114Z,21.65
2024-05-09T12:27:58.894Z,22.28
2024-05-09T12:30:35.036Z,22.45
2024-05-09T12:33:05.697Z,23.46
2024-05-09T12:35:32.675Z,23.81
2024-05-09T12:37:59.275Z,23.91
2024-05-09T12:40:34.407Z,23.93
2024-05-09T12:43:04.498Z,24.26
2024-05-09T12:45:31.396Z,23.95
2024-05-09T12:47:58.399Z,23.50
2024-05-09T12:50:31.736Z,22.90
2024-05-09T12:53:00.492Z,22.55
2024-05-09T12:55:28.348Z,22.07
2024-05-09T12:57:56.715Z,21.84
2024-05-09T13:00:28.256Z,21.71
2024-05-09T13:03:00.652Z,21.58
2024-05-09T13:05:28.049Z,21.40
2024-05-09T13:07:56.336Z,21.17
2024-05-09T13:10:29.443Z,21.07
2024-05-09T13:12:59.961Z,21.09
2024-05-09T13:15:26.937Z,21.13
2024-05-09T13:20:29.228Z,21.16
2024-05-09T13:23:01.694Z,21.20
2024-05-09T13:25:28.482Z,21.25
2024-05-09T13:27:55.973Z,21.28
2024-05-09T13:30:29.607Z,21.29
2024-05-09T13:33:05.873Z,21.35
2024-05-09T13:35:34.269Z,21.30
2024-05-09T13:38:01.790Z,21.27
2024-05-09T13:40:33.601Z,21.22
2024-05-09T13:43:02.886Z,21.16
2024-05-09T13:45:29.696Z,21.14
2024-05-09T13:47:56.725Z,21.28
2024-05-09T13:50:31.338Z,21.43
2024-05-09T13:53:02.042Z,21.61
2024-05-09T13:55:28.665Z,21.78
2024-05-09T13:57:55.423Z,21.88
2024-05-09T14:00:37.647Z,21.89
2024-05-09T14:03:08.923Z,22.07
2024-05-09T14:05:36.125Z,22.20
2024-05-09T14:08:03.111Z,22.22
2024-05-09T14:10:31.763Z,22.15
2024-05-09T14:12:59.772Z,22.17
2024-05-09T14:15:26.491Z,22.31
2024-05-09T14:17:53.381Z,22.34
2024-05-09T14:20:29.902Z,22.35
2024-05-09T14:22:58.812Z,22.33
2024-05-09T14:25:28.198Z,22.37
2024-05-09T14:27:55.032Z,22.49
2024-05-09T14:30:30.462Z,22.56
2024-05-09T14:33:03.383Z,22.65
2024-05-09T14:35:30.067Z,22.66
2024-05-09T14:37:56.773Z,22.63
2024-05-09T14:40:34.889Z,22.70
2024-05-09T14:43:06.649Z,22.74
2024-05-09T14:45:34.435Z,22.81
2024-05-09T14:48:01.578Z,22.75
2024-05-09T14:50:35.195Z,22.80
2024-05-09T14:53:06.389Z,22.61
2024-05-09T14:55:35.748Z,22.47
2024-05-09T14:58:03.352Z,22.24
2024-05-09T15:00:35.595Z,22.10
2024-05-09T15:03:03.694Z,21.99
2024-05-09T15:05:30.507Z,21.90
2024-05-09T15:07:58.018Z,21.88
2024-05-09T15:10:33.662Z,21.67
2024-05-09T15:13:02.867Z,21.65
2024-05-09T15:15:29.742Z,21.68
2024-05-09T15:17:56.715Z,21.66
2024-05-09T15:20:31.044Z,21.70
2024-05-09T15:23:01.956Z,21.78
2024-05-09T15:25:28.705Z,21.82
2024-05-09T15:27:55.530Z,21.78
2024-05-09T15:30:30.030Z,21.78
2024-05-09T15:33:01.223Z,21.85
2024-05-09T15:35:28.197Z,21.88
2024-05-09T15:37:55.322Z,21.91
2024-05-09T15:40:31.003Z,21.90
2024-05-09T15:43:05.400Z,21.94
2024-05-09T15:45:32.324Z,21.97
2024-05-09T15:47:59.710Z,22.01
2024-05-09T15:50:36.086Z,22.03
2024-05-09T15:53:07.912Z,21.90
2024-05-09T15:55:35.346Z,21.95
2024-05-09T15:58:03.454Z,21.98
2024-05-09T16:00:37.124Z,22.05
2024-05-09T16:03:07.739Z,22.13
2024-05-09T16:05:34.526Z,22.13
2024-05-09T16:08:02.712Z,22.13
2024-05-09T16:10:32.920Z,22.15
2024-05-09T16:13:01.919Z,22.18
2024-05-09T16:15:29.033Z,22.17
2024-05-09T16:17:56.320Z,22.07
2024-05-09T16:22:52.540Z,21.85
2024-05-09T16:25:19.201Z,21.82
2024-05-09T16:27:45.901Z,21.85
2024-05-09T16:30:20.955Z,21.82
2024-05-09T16:32:54.052Z,21.88
2024-05-09T16:35:20.583Z,21.87
2024-05-09T16:37:47.725Z,21.85
2024-05-09T16:40:22.152Z,21.80
2024-05-09T16:42:56.619Z,21.80
2024-05-09T16:45:23.168Z,21.77
2024-05-09T16:47:50.382Z,21.66
2024-05-09T16:50:25.718Z,21.62
2024-05-09T16:52:55.696Z,21.48
2024-05-09T16:55:22.324Z,21.40
2024-05-09T16:57:49.382Z,21.32
2024-05-09T17:00:25.214Z,21.25
2024-05-09T17:02:57.926Z,21.23
2024-05-09T17:05:24.662Z,21.25
2024-05-09T17:07:51.627Z,21.25
2024-05-09T17:10:26.525Z,21.17
2024-05-09T17:12:58.667Z,21.06
2024-05-09T17:15:25.664Z,21.00
2024-05-09T17:17:52.299Z,21.07
2024-05-09T17:20:26.102Z,21.08
2024-05-09T17:22:59.096Z,20.97
2024-05-09T17:25:25.573Z,20.93
2024-05-09T17:27:52.228Z,20.92
2024-05-09T17:30:28.556Z,20.93
2024-05-09T17:32:59.496Z,20.85
2024-05-09T17:35:26.036Z,20.89
2024-05-09T17:37:52.560Z,20.94
2024-05-09T17:40:27.888Z,20.91
2024-05-09T17:42:59.874Z,20.84
2024-05-09T17:45:26.439Z,20.75
2024-05-09T17:47:53.463Z,20.66
2024-05-09T17:50:27.366Z,20.64
2024-05-09T17:53:00.461Z,20.56
2024-05-09T17:55:27.509Z,20.60
2024-05-09T17:57:54.361Z,20.59
2024-05-09T18:00:29.284Z,20.63
2024-05-09T18:03:04.480Z,20.62
2024-05-09T18:05:31.583Z,20.63
2024-05-09T18:07:58.525Z,20.57
2024-05-09T18:10:32.827Z,20.50
2024-05-09T18:13:03.623Z,20.41
2024-05-09T18:15:30.165Z,20.35
2024-05-09T18:17:56.966Z,20.32
2024-05-09T18:20:33.087Z,20.31
2024-05-09T18:23:07.833Z,20.30
2024-05-09T18:26:17.283Z,20.33
2024-05-09T18:28:50.639Z,20.32
2024-05-09T18:31:48.152Z,20.24
2024-05-09T18:34:28.468Z,20.23
2024-05-09T18:37:35.047Z,20.20
2024-05-09T18:42:53.131Z,20.10
2024-05-09T18:45:19.673Z,20.11
2024-05-09T18:47:46.299Z,20.09
2024-05-09T18:50:20.428Z,20.07
2024-05-09T18:52:54.228Z,20.03
2024-05-09T18:55:20.770Z,19.95
2024-05-09T18:57:47.334Z,19.96
2024-05-09T19:00:26.615Z,19.88
2024-05-09T19:03:00.518Z,19.87
2024-05-09T19:05:27.606Z,19.84
2024-05-09T19:07:54.483Z,19.74
2024-05-09T19:10:23.054Z,19.68
2024-05-09T19:12:52.982Z,19.54
2024-05-09T19:15:19.497Z,19.52
2024-05-09T19:17:47.200Z,19.55
2024-05-09T19:20:24.796Z,19.51
2024-05-09T19:22:55.896Z,19.46
2024-05-09T19:25:22.449Z,19.44
2024-05-09T19:27:49.044Z,19.38
2024-05-09T19:30:25.313Z,19.33
2024-05-09T19:33:00.930Z,19.27
2024-05-09T19:35:27.495Z,19.27
2024-05-09T19:37:53.973Z,19.21
2024-05-09T19:40:28.635Z,19.16
2024-05-09T19:42:58.529Z,19.12
2024-05-09T19:45:26.084Z,19.09
2024-05-09T19:47:52.977Z,19.02
2024-05-09T19:50:26.138Z,18.90
2024-05-09T19:52:58.580Z,18.78
2024-05-09T19:55:25.192Z,18.76
2024-05-09T19:57:51.678Z,18.70
2024-05-09T20:00:25.858Z,18.65
2024-05-09T20:02:56.189Z,18.61
2024-05-09T20:05:23.647Z,18.60
2024-05-09T20:07:50.264Z,18.55
2024-05-09T20:10:23.680Z,18.55
2024-05-09T20:12:53.765Z,18.47
2024-05-09T20:15:20.536Z,18.42
2024-05-09T20:17:47.333Z,18.39
2024-05-09T20:20:24.546Z,18.40
2024-05-09T20:22:59.793Z,18.36
2024-05-09T20:25:26.311Z,18.37
2024-05-09T20:27:52.985Z,18.28
2024-05-09T20:30:28.585Z,18.21
2024-05-09T20:32:59.138Z,18.08
2024-05-09T20:35:26.382Z,17.90
2024-05-09T20:37:52.914Z,17.88
2024-05-09T20:40:28.232Z,17.81
2024-05-09T20:42:58.937Z,17.72
2024-05-09T20:45:27.074Z,17.75
2024-05-09T20:47:53.810Z,17.71
2024-05-09T20:50:29.153Z,17.72
2024-05-09T20:53:03.569Z,17.76
2024-05-09T20:55:30.454Z,17.70
2024-05-09T20:57:57.761Z,17.61
2024-05-09T21:00:33.857Z,17.51
2024-05-09T21:03:06.295Z,17.15
2024-05-09T21:05:33.720Z,17.03
2024-05-09T21:08:00.648Z,17.38
2024-05-09T21:10:31.555Z,17.23
2024-05-09T21:12:59.692Z,17.07
2024-05-09T21:15:26.205Z,17.02
2024-05-09T21:17:52.793Z,16.88
2024-05-09T21:20:24.293Z,16.78
2024-05-09T21:22:57.580Z,16.69
2024-05-09T21:25:24.143Z,16.58
2024-05-09T21:27:50.737Z,16.48
2024-05-09T21:30:26.748Z,16.41
2024-05-09T21:32:59.101Z,16.40
2024-05-09T21:35:25.786Z,16.36
2024-05-09T21:37:52.270Z,16.29
2024-05-09T21:40:26.918Z,16.24
2024-05-09T21:43:00.439Z,16.13
2024-05-09T21:45:27.215Z,16.05
2024-05-09T21:47:53.916Z,16.00
2024-05-09T21:50:27.601Z,15.99
2024-05-09T21:52:58.715Z,15.94
2024-05-09T21:55:25.268Z,15.93
2024-05-09T21:57:51.891Z,15.86
2024-05-09T22:00:28.576Z,15.81
2024-05-09T22:03:01.927Z,15.76
2024-05-09T22:05:28.593Z,15.70
2024-05-09T22:07:55.185Z,15.69
2024-05-09T22:10:26.495Z,15.61
2024-05-09T22:12:59.274Z,15.57
2024-05-09T22:15:25.990Z,15.52
2024-05-09T22:17:52.606Z,15.47
2024-05-09T22:20:26.027Z,15.42
2024-05-09T22:23:00.507Z,15.38
2024-05-09T22:25:29.688Z,15.30
2024-05-09T22:27:57.045Z,15.30
2024-05-09T22:30:31.186Z,15.35
2024-05-09T22:33:01.962Z,15.39
2024-05-09T22:35:28.577Z,15.27
2024-05-09T22:37:55.382Z,15.12
2024-05-09T22:40:29.522Z,15.11
2024-05-09T22:43:06.001Z,15.16
2024-05-09T22:45:32.817Z,15.15
2024-05-09T22:47:59.679Z,15.07
2024-05-09T22:50:30.537Z,15.02
2024-05-09T22:52:59.074Z,15.06
2024-05-09T22:55:25.591Z,15.10
2024-05-09T22:57:52.274Z,15.08
2024-05-09T23:00:22.045Z,15.10
2024-05-09T23:02:55.298Z,15.10
2024-05-09T23:05:22.109Z,15.05
2024-05-09T23:07:48.710Z,14.97
2024-05-09T23:10:21.363Z,14.92
2024-05-09T23:12:55.028Z,14.96
2024-05-09T23:15:21.870Z,14.93
2024-05-09T23:17:48.716Z,14.83
2024-05-09T23:20:21.634Z,14.72
2024-05-09T23:22:55.442Z,14.69
2024-05-09T23:25:22.002Z,14.72
2024-05-09T23:27:48.609Z,14.70
2024-05-09T23:30:25.538Z,14.78
2024-05-09T23:32:59.219Z,14.75
2024-05-09T23:35:25.837Z,14.74
2024-05-09T23:37:52.501Z,14.72
2024-05-09T23:40:22.861Z,14.67
2024-05-09T23:42:49.913Z,14.69
2024-05-09T23:45:17.524Z,14.76
2024-05-09T23:47:44.052Z,14.77
2024-05-09T23:50:16.828Z,14.77
2024-05-09T23:52:50.225Z,14.64
2024-05-09T23:55:16.861Z,14.55
2024-05-09T23:57:43.762Z,14.63
